createdAt,value
2024-03-08T00:00:28.189Z,94.24
2024-03-08T00:01:29.810Z,94.41
2024-03-08T00:02:31.434Z,93.95
2024-03-08T00:03:33.798Z,94.04
2024-03-08T00:04:35.340Z,93.94
2024-03-08T00:05:39.693Z,94.02
2024-03-08T00:06:41.764Z,94.03
2024-03-08T00:07:44.359Z,93.83
2024-03-08T00:08:46.072Z,93.94
2024-03-08T00:09:47.672Z,94.31
2024-03-08T00:10:49.331Z,94.33
2024-03-08T00:11:51.555Z,94.52
2024-03-08T00:12:54.646Z,94.94
2024-03-08T00:13:56.491Z,94.77
2024-03-08T00:14:58.225Z,95.09
2024-03-08T00:15:59.776Z,95.10
2024-03-08T00:17:01.391Z,95.37
2024-03-08T00:18:03.003Z,95.11
2024-03-08T00:19:04.628Z,95.08
2024-03-08T00:20:09.357Z,95.02
2024-03-08T00:21:11.446Z,95.31
2024-03-08T00:22:13.019Z,95.14
2024-03-08T00:23:14.575Z,95.88
2024-03-08T00:24:16.165Z,95.93
2024-03-08T00:25:17.803Z,95.94
2024-03-08T00:26:19.655Z,95.90
2024-03-08T00:27:22.268Z,95.52
2024-03-08T00:28:26.164Z,95.50
2024-03-08T00:29:28.716Z,95.35
2024-03-08T00:30:30.397Z,94.98
2024-03-08T00:31:35.113Z,94.82
2024-03-08T00:32:38.359Z,94.72
2024-03-08T00:33:41.051Z,94.79
2024-03-08T00:34:42.694Z,95.15
2024-03-08T00:35:44.340Z,94.69
2024-03-08T00:36:46.028Z,94.75
2024-03-08T00:37:50.367Z,94.71
2024-03-08T00:38:51.966Z,94.86
2024-03-08T00:39:54.216Z,95.28
2024-03-08T00:40:57.049Z,95.55
2024-03-08T00:41:58.649Z,95.76
2024-03-08T00:43:00.247Z,95.66
2024-03-08T00:44:01.839Z,95.65
2024-03-08T00:45:04.086Z,95.96
2024-03-08T00:46:05.827Z,95.75
2024-03-08T00:47:07.441Z,95.57
2024-03-08T00:48:09.529Z,95.80
2024-03-08T00:49:11.102Z,95.93
2024-03-08T00:50:14.142Z,95.85
2024-03-08T00:51:18.325Z,96.45
2024-03-08T00:52:20.386Z,96.24
2024-03-08T00:53:22.057Z,96.51
2024-03-08T00:54:23.599Z,96.42
2024-03-08T00:55:25.168Z,96.80
2024-03-08T00:56:26.752Z,97.13
2024-03-08T00:57:29.137Z,97.57
2024-03-08T00:58:31.748Z,97.64
2024-03-08T00:59:36.511Z,98.05
2024-03-08T01:00:39.971Z,97.68
2024-03-08T01:01:45.255Z,97.95
2024-03-08T01:02:46.888Z,98.23
2024-03-08T01:03:49.803Z,97.62
2024-03-08T01:04:51.518Z,98.44
2024-03-08T01:05:53.099Z,98.45
2024-03-08T01:06:54.656Z,98.84
2024-03-08T01:07:56.188Z,98.89
2024-03-08T01:08:57.818Z,98.79
2024-03-08T01:09:59.685Z,98.84
2024-03-08T01:11:01.315Z,98.76
2024-03-08T01:12:02.985Z,99.14
2024-03-08T01:13:04.808Z,98.90
2024-03-08T01:14:06.593Z,99.65
2024-03-08T01:15:08.603Z,99.40
2024-03-08T01:16:12.535Z,99.88
2024-03-08T01:17:15.502Z,100.00
2024-03-08T01:18:17.251Z,100.00
2024-03-08T01:19:19.005Z,100.00
2024-03-08T01:20:20.802Z,100.00
2024-03-08T01:21:23.464Z,100.00
2024-03-08T01:22:25.048Z,100.00
2024-03-08T01:23:26.823Z,100.00
2024-03-08T01:24:28.367Z,100.00
2024-03-08T01:25:29.964Z,100.00
2024-03-08T01:26:31.841Z,100.00
2024-03-08T01:27:33.609Z,100.00
2024-03-08T01:28:35.583Z,100.00
2024-03-08T01:29:37.214Z,100.00
2024-03-08T01:30:39.737Z,100.00
2024-03-08T01:31:41.305Z,100.00
2024-03-08T01:32:43.768Z,100.00
2024-03-08T01:33:45.438Z,100.00
2024-03-08T01:34:47.087Z,100.00
2024-03-08T01:35:49.098Z,100.00
2024-03-08T01:36:50.716Z,100.00
2024-03-08T01:37:52.256Z,100.00
2024-03-08T01:38:54.014Z,100.00
2024-03-08T01:39:55.580Z,100.00
2024-03-08T01:40:57.450Z,100.00
2024-03-08T01:41:59.570Z,100.00
2024-03-08T01:43:36.959Z,100.00
2024-03-08T01:44:38.531Z,100.00
2024-03-08T01:45:40.048Z,100.00
2024-03-08T01:46:41.622Z,100.00
2024-03-08T01:47:43.297Z,100.00
2024-03-08T01:48:45.609Z,100.00
2024-03-08T01:49:47.369Z,100.00
2024-03-08T01:50:49.070Z,100.00
2024-03-08T01:51:50.986Z,100.00
2024-03-08T01:52:53.485Z,100.00
2024-03-08T01:53:56.996Z,100.00
2024-03-08T01:55:02.060Z,100.00
2024-03-08T01:56:04.095Z,100.00
2024-03-08T01:57:05.920Z,100.00
2024-03-08T01:58:08.182Z,100.00
2024-03-08T01:59:10.176Z,100.00
2024-03-08T02:00:12.978Z,100.00
2024-03-08T02:01:17.940Z,100.00
2024-03-08T02:02:20.999Z,100.00
2024-03-08T02:03:23.552Z,100.00
2024-03-08T02:04:25.568Z,100.00
2024-03-08T02:05:27.391Z,100.00
2024-03-08T02:06:28.964Z,100.00
2024-03-08T02:07:30.483Z,100.00
2024-03-08T02:08:32.770Z,100.00
2024-03-08T02:09:34.419Z,100.00
2024-03-08T02:10:36.017Z,100.00
2024-03-08T02:11:38.296Z,100.00
2024-03-08T02:12:40.355Z,100.00
2024-03-08T02:13:42.385Z,100.00
2024-03-08T02:14:45.232Z,100.00
2024-03-08T02:16:01.451Z,100.00
2024-03-08T02:17:03.608Z,100.00
2024-03-08T02:18:05.806Z,100.00
2024-03-08T02:19:10.819Z,100.00
2024-03-08T02:20:14.639Z,100.00
2024-03-08T02:21:22.069Z,100.00
2024-03-08T02:22:23.755Z,100.00
2024-03-08T02:23:26.101Z,100.00
2024-03-08T02:24:27.722Z,100.00
2024-03-08T02:25:29.628Z,100.00
2024-03-08T02:26:31.236Z,100.00
2024-03-08T02:27:32.887Z,100.00
2024-03-08T02:28:35.200Z,100.00
2024-03-08T02:29:37.855Z,100.00
2024-03-08T02:30:39.945Z,100.00
2024-03-08T02:31:41.469Z,100.00
2024-03-08T02:32:43.108Z,100.00
2024-03-08T02:33:44.880Z,100.00
2024-03-08T02:34:46.503Z,100.00
2024-03-08T02:35:49.320Z,100.00
2024-03-08T02:36:50.878Z,100.00
2024-03-08T02:37:52.429Z,100.00
2024-03-08T02:38:54.017Z,100.00
2024-03-08T02:39:56.407Z,100.00
2024-03-08T02:40:58.016Z,100.00
2024-03-08T02:41:59.620Z,100.00
2024-03-08T02:43:01.244Z,100.00
2024-03-08T02:44:02.843Z,100.00
2024-03-08T02:45:06.835Z,100.00
2024-03-08T02:46:08.474Z,100.00
2024-03-08T02:47:10.089Z,100.00
2024-03-08T02:48:12.391Z,100.00
2024-03-08T02:49:13.994Z,100.00
2024-03-08T02:50:17.429Z,100.00
2024-03-08T02:51:19.198Z,100.00
2024-03-08T02:52:22.464Z,100.00
2024-03-08T02:53:25.821Z,100.00
2024-03-08T02:54:27.398Z,100.00
2024-03-08T02:55:29.044Z,100.00
2024-03-08T02:56:31.407Z,100.00
2024-03-08T02:57:33.266Z,100.00
2024-03-08T02:58:34.813Z,100.00
2024-03-08T02:59:36.421Z,100.00
2024-03-08T03:00:40.067Z,100.00
2024-03-08T03:01:42.427Z,100.00
2024-03-08T03:02:44.071Z,100.00
2024-03-08T03:03:45.661Z,100.00
2024-03-08T03:04:47.157Z,100.00
2024-03-08T03:05:49.598Z,100.00
2024-03-08T03:06:51.992Z,100.00
2024-03-08T03:07:53.582Z,100.00
2024-03-08T03:08:55.179Z,100.00
2024-03-08T03:09:56.943Z,100.00
2024-03-08T03:10:58.570Z,100.00
2024-03-08T03:12:00.690Z,100.00
2024-03-08T03:13:02.252Z,100.00
2024-03-08T03:14:03.786Z,100.00
2024-03-08T03:15:06.234Z,100.00
2024-03-08T03:16:08.464Z,100.00
2024-03-08T03:17:11.183Z,100.00
2024-03-08T03:18:13.049Z,100.00
2024-03-08T03:19:16.206Z,100.00
2024-03-08T03:20:27.176Z,100.00
2024-03-08T03:21:32.859Z,100.00
2024-03-08T03:22:35.950Z,100.00
2024-03-08T03:23:38.320Z,100.00
2024-03-08T03:24:41.191Z,100.00
2024-03-08T03:25:42.931Z,100.00
2024-03-08T03:26:44.949Z,100.00
2024-03-08T03:27:47.514Z,100.00
2024-03-08T03:28:49.397Z,100.00
2024-03-08T03:29:52.014Z,100.00
2024-03-08T03:30:54.167Z,100.00
2024-03-08T03:31:55.701Z,100.00
2024-03-08T03:33:00.116Z,100.00
2024-03-08T03:34:05.107Z,100.00
2024-03-08T03:35:07.041Z,100.00
2024-03-08T03:36:11.178Z,100.00
2024-03-08T03:37:13.723Z,100.00
2024-03-08T03:38:15.536Z,100.00
2024-03-08T03:39:17.865Z,100.00
2024-03-08T03:40:20.664Z,100.00
2024-03-08T03:41:22.234Z,100.00
2024-03-08T03:42:25.077Z,100.00
2024-03-08T03:43:27.088Z,100.00
2024-03-08T03:44:29.594Z,100.00
2024-03-08T03:45:36.450Z,100.00
2024-03-08T03:46:38.872Z,100.00
2024-03-08T03:47:40.454Z,100.00
2024-03-08T03:48:43.536Z,100.00
2024-03-08T03:49:46.174Z,100.00
2024-03-08T03:50:47.913Z,100.00
2024-03-08T03:51:49.478Z,100.00
2024-03-08T03:52:51.020Z,100.00
2024-03-08T03:53:53.882Z,100.00
2024-03-08T03:54:55.507Z,100.00
2024-03-08T03:55:57.805Z,100.00
2024-03-08T03:56:59.608Z,100.00
2024-03-08T03:58:02.381Z,100.00
2024-03-08T03:59:04.018Z,100.00
2024-03-08T04:00:07.469Z,100.00
2024-03-08T04:01:10.829Z,100.00
2024-03-08T04:02:12.373Z,100.00
2024-03-08T04:03:14.017Z,100.00
2024-03-08T04:04:15.599Z,100.00
2024-03-08T04:05:17.139Z,100.00
2024-03-08T04:06:18.733Z,100.00
2024-03-08T04:07:20.301Z,100.00
2024-03-08T04:08:22.008Z,100.00
2024-03-08T04:09:23.547Z,100.00
2024-03-08T04:10:25.375Z,100.00
2024-03-08T04:11:27.066Z,100.00
2024-03-08T04:12:30.328Z,100.00
2024-03-08T04:13:31.928Z,100.00
2024-03-08T04:14:34.168Z,100.00
2024-03-08T04:15:35.755Z,100.00
2024-03-08T04:16:38.332Z,100.00
2024-03-08T04:17:40.036Z,100.00
2024-03-08T04:18:41.916Z,100.00
2024-03-08T04:19:43.709Z,100.00
2024-03-08T04:20:45.326Z,100.00
2024-03-08T04:21:46.922Z,100.00
2024-03-08T04:22:50.577Z,100.00
2024-03-08T04:23:52.838Z,100.00
2024-03-08T04:24:54.415Z,100.00
2024-03-08T04:25:55.966Z,100.00
2024-03-08T04:26:57.867Z,100.00
2024-03-08T04:27:59.517Z,100.00
2024-03-08T04:29:01.066Z,100.00
2024-03-08T04:30:08.867Z,100.00
2024-03-08T04:31:11.791Z,100.00
2024-03-08T04:32:14.661Z,100.00
2024-03-08T04:33:17.697Z,100.00
2024-03-08T04:34:19.367Z,100.00
2024-03-08T04:35:21.942Z,100.00
2024-03-08T04:36:24.480Z,100.00
2024-03-08T04:37:26.456Z,100.00
2024-03-08T04:38:28.191Z,100.00
2024-03-08T04:39:30.071Z,100.00
2024-03-08T04:40:32.434Z,100.00
2024-03-08T04:41:35.322Z,100.00
2024-03-08T04:42:40.193Z,100.00
2024-03-08T04:43:41.746Z,100.00
2024-03-08T04:44:43.281Z,100.00
2024-03-08T04:45:45.145Z,100.00
2024-03-08T04:46:47.998Z,100.00
2024-03-08T04:47:49.779Z,100.00
2024-03-08T04:48:51.620Z,100.00
2024-03-08T04:49:54.323Z,100.00
2024-03-08T04:50:56.992Z,100.00
2024-03-08T04:51:58.635Z,100.00
2024-03-08T04:53:00.166Z,100.00
2024-03-08T04:54:01.804Z,100.00
2024-03-08T04:55:06.242Z,100.00
2024-03-08T04:56:08.375Z,100.00
2024-03-08T04:57:10.238Z,100.00
2024-03-08T04:58:11.803Z,100.00
2024-03-08T04:59:13.454Z,100.00
2024-03-08T05:00:16.252Z,100.00
2024-03-08T05:01:18.301Z,100.00
2024-03-08T05:02:19.829Z,100.00
2024-03-08T05:03:22.425Z,100.00
2024-03-08T05:04:23.935Z,100.00
2024-03-08T05:05:27.285Z,100.00
2024-03-08T05:06:30.065Z,100.00
2024-03-08T05:07:31.663Z,100.00
2024-03-08T05:08:34.234Z,100.00
2024-03-08T05:09:37.385Z,100.00
2024-03-08T05:10:39.016Z,100.00
2024-03-08T05:11:48.127Z,100.00
2024-03-08T05:12:50.498Z,100.00
2024-03-08T05:13:52.046Z,100.00
2024-03-08T05:14:53.608Z,100.00
2024-03-08T05:15:55.336Z,100.00
2024-03-08T05:16:57.128Z,100.00
2024-03-08T05:17:59.263Z,100.00
2024-03-08T05:19:01.048Z,100.00
2024-03-08T05:20:03.067Z,100.00
2024-03-08T05:21:05.263Z,100.00
2024-03-08T05:22:06.816Z,100.00
2024-03-08T05:23:09.434Z,100.00
2024-03-08T05:24:11.467Z,100.00
2024-03-08T05:25:13.443Z,100.00
2024-03-08T05:27:17.533Z,100.00
2024-03-08T05:28:19.081Z,100.00
2024-03-08T05:29:20.685Z,100.00
2024-03-08T05:30:23.022Z,100.00
2024-03-08T05:31:24.676Z,100.00
2024-03-08T05:32:27.280Z,100.00
2024-03-08T05:33:29.704Z,100.00
2024-03-08T05:34:31.494Z,100.00
2024-03-08T05:35:33.740Z,100.00
2024-03-08T05:36:36.067Z,100.00
2024-03-08T05:37:37.874Z,100.00
2024-03-08T05:38:39.459Z,100.00
2024-03-08T05:39:42.141Z,100.00
2024-03-08T05:40:44.514Z,100.00
2024-03-08T05:41:47.011Z,100.00
2024-03-08T05:42:48.594Z,100.00
2024-03-08T05:43:50.164Z,100.00
2024-03-08T05:44:51.733Z,100.00
2024-03-08T05:45:53.349Z,100.00
2024-03-08T05:46:54.916Z,100.00
2024-03-08T05:47:56.680Z,100.00
2024-03-08T05:48:59.979Z,100.00
2024-03-08T05:50:01.608Z,100.00
2024-03-08T05:51:03.347Z,100.00
2024-03-08T05:52:05.796Z,100.00
2024-03-08T05:53:07.755Z,100.00
2024-03-08T05:54:12.120Z,100.00
2024-03-08T05:55:15.564Z,100.00
2024-03-08T05:56:17.438Z,100.00
2024-03-08T05:57:19.321Z,100.00
2024-03-08T05:58:20.899Z,100.00
2024-03-08T05:59:24.560Z,100.00
2024-03-08T06:00:27.406Z,100.00
2024-03-08T06:01:29.714Z,100.00
2024-03-08T06:02:31.270Z,100.00
2024-03-08T06:03:32.839Z,100.00
2024-03-08T06:04:34.395Z,100.00
2024-03-08T06:05:36.015Z,100.00
2024-03-08T06:06:38.955Z,100.00
2024-03-08T06:07:41.765Z,100.00
2024-03-08T06:08:44.700Z,100.00
2024-03-08T06:09:49.311Z,100.00
2024-03-08T06:10:53.809Z,100.00
2024-03-08T06:11:56.211Z,100.00
2024-03-08T06:12:57.907Z,100.00
2024-03-08T06:14:01.393Z,100.00
2024-03-08T06:15:03.468Z,100.00
2024-03-08T06:16:05.801Z,100.00
2024-03-08T06:17:08.358Z,100.00
2024-03-08T06:18:13.066Z,100.00
2024-03-08T06:19:14.859Z,100.00
2024-03-08T06:20:16.651Z,100.00
2024-03-08T06:21:18.188Z,100.00
2024-03-08T06:22:21.004Z,100.00
2024-03-08T06:23:22.960Z,100.00
2024-03-08T06:24:24.637Z,100.00
2024-03-08T06:25:26.226Z,100.00
2024-03-08T06:26:31.559Z,100.00
2024-03-08T06:27:35.115Z,100.00
2024-03-08T06:28:36.813Z,100.00
2024-03-08T06:29:38.463Z,100.00
2024-03-08T06:30:40.049Z,100.00
2024-03-08T06:31:41.702Z,100.00
2024-03-08T06:32:44.548Z,100.00
2024-03-08T06:33:46.764Z,100.00
2024-03-08T06:34:48.375Z,100.00
2024-03-08T06:35:49.914Z,100.00
2024-03-08T06:36:53.624Z,100.00
2024-03-08T06:37:55.420Z,100.00
2024-03-08T06:38:58.195Z,100.00
2024-03-08T06:39:59.919Z,100.00
2024-03-08T06:41:04.205Z,100.00
2024-03-08T06:42:06.137Z,100.00
2024-03-08T06:43:08.061Z,100.00
2024-03-08T06:44:10.239Z,100.00
2024-03-08T06:45:13.621Z,100.00
2024-03-08T06:46:21.910Z,100.00
2024-03-08T06:47:26.875Z,100.00
2024-03-08T06:48:28.608Z,100.00
2024-03-08T06:49:30.673Z,100.00
2024-03-08T06:50:33.287Z,100.00
2024-03-08T06:51:34.877Z,100.00
2024-03-08T06:52:36.416Z,100.00
2024-03-08T06:53:39.946Z,100.00
2024-03-08T06:54:41.971Z,100.00
2024-03-08T06:55:43.688Z,100.00
2024-03-08T06:56:45.306Z,100.00
2024-03-08T06:57:46.915Z,100.00
2024-03-08T06:58:49.054Z,100.00
2024-03-08T06:59:50.706Z,100.00
2024-03-08T07:00:53.391Z,100.00
2024-03-08T07:01:55.454Z,100.00
2024-03-08T07:03:01.963Z,100.00
2024-03-08T07:04:06.415Z,100.00
2024-03-08T07:05:11.607Z,100.00
2024-03-08T07:06:13.758Z,100.00
2024-03-08T07:07:16.168Z,100.00
2024-03-08T07:08:17.878Z,100.00
2024-03-08T07:09:19.562Z,100.00
2024-03-08T07:10:27.177Z,100.00
2024-03-08T07:11:28.844Z,100.00
2024-03-08T07:12:30.483Z,100.00
2024-03-08T07:13:32.736Z,100.00
2024-03-08T07:14:34.356Z,100.00
2024-03-08T07:15:36.687Z,100.00
2024-03-08T07:16:38.224Z,100.00
2024-03-08T07:17:40.609Z,100.00
2024-03-08T07:18:44.730Z,100.00
2024-03-08T07:19:46.541Z,100.00
2024-03-08T07:20:48.181Z,100.00
2024-03-08T07:21:49.754Z,100.00
2024-03-08T07:22:54.126Z,100.00
2024-03-08T07:24:01.580Z,100.00
2024-03-08T07:25:21.007Z,100.00
2024-03-08T07:26:22.674Z,100.00
2024-03-08T07:27:24.461Z,100.00
2024-03-08T07:28:26.030Z,100.00
2024-03-08T07:29:27.608Z,100.00
2024-03-08T07:30:44.769Z,100.00
2024-03-08T07:31:52.199Z,100.00
2024-03-08T07:32:53.879Z,100.00
2024-03-08T07:33:55.536Z,100.00
2024-03-08T07:34:57.366Z,100.00
2024-03-08T07:35:59.040Z,100.00
2024-03-08T07:37:00.738Z,100.00
2024-03-08T07:38:03.663Z,100.00
2024-03-08T07:39:10.450Z,100.00
2024-03-08T07:40:14.915Z,100.00
2024-03-08T07:41:17.525Z,100.00
2024-03-08T07:42:19.108Z,100.00
2024-03-08T07:43:20.631Z,100.00
2024-03-08T07:44:22.245Z,100.00
2024-03-08T07:45:23.858Z,100.00
2024-03-08T07:46:25.412Z,100.00
2024-03-08T07:47:27.611Z,100.00
2024-03-08T07:48:29.530Z,100.00
2024-03-08T07:49:31.325Z,100.00
2024-03-08T07:50:34.384Z,100.00
2024-03-08T07:51:36.130Z,100.00
2024-03-08T07:52:38.058Z,100.00
2024-03-08T07:53:39.693Z,100.00
2024-03-08T07:54:41.312Z,100.00
2024-03-08T07:55:44.004Z,100.00
2024-03-08T07:56:45.869Z,100.00
2024-03-08T07:57:48.789Z,100.00
2024-03-08T07:58:50.380Z,100.00
2024-03-08T07:59:51.928Z,100.00
2024-03-08T08:00:53.498Z,100.00
2024-03-08T08:01:55.375Z,100.00
2024-03-08T08:02:57.090Z,100.00
2024-03-08T08:03:58.682Z,100.00
2024-03-08T08:05:00.522Z,100.00
2024-03-08T08:06:02.609Z,100.00
2024-03-08T08:07:04.402Z,100.00
2024-03-08T08:08:07.862Z,100.00
2024-03-08T08:09:29.189Z,100.00
2024-03-08T08:10:30.796Z,100.00
2024-03-08T08:11:33.709Z,100.00
2024-03-08T08:12:35.275Z,100.00
2024-03-08T08:13:37.660Z,100.00
2024-03-08T08:14:42.492Z,100.00
2024-03-08T08:15:44.076Z,100.00
2024-03-08T08:16:46.367Z,100.00
2024-03-08T08:17:52.981Z,100.00
2024-03-08T08:18:55.664Z,100.00
2024-03-08T08:19:57.261Z,100.00
2024-03-08T08:20:58.762Z,100.00
2024-03-08T08:22:00.338Z,100.00
2024-03-08T08:23:02.123Z,100.00
2024-03-08T08:24:07.474Z,100.00
2024-03-08T08:25:09.406Z,100.00
2024-03-08T08:26:12.399Z,100.00
2024-03-08T08:27:15.484Z,100.00
2024-03-08T08:28:20.151Z,100.00
2024-03-08T08:29:21.753Z,100.00
2024-03-08T08:30:23.631Z,100.00
2024-03-08T08:31:25.161Z,100.00
2024-03-08T08:32:27.677Z,100.00
2024-03-08T08:33:29.348Z,100.00
2024-03-08T08:34:31.379Z,100.00
2024-03-08T08:35:34.031Z,100.00
2024-03-08T08:36:36.343Z,100.00
2024-03-08T08:37:40.150Z,100.00
2024-03-08T08:38:45.189Z,100.00
2024-03-08T08:39:50.780Z,100.00
2024-03-08T08:40:53.683Z,100.00
2024-03-08T08:41:56.480Z,100.00
2024-03-08T08:43:01.169Z,99.11
2024-03-08T08:44:09.139Z,99.42
2024-03-08T08:45:23.188Z,99.30
2024-03-08T08:46:27.344Z,99.13
2024-03-08T08:47:29.444Z,98.81
2024-03-08T08:48:31.906Z,98.04
2024-03-08T08:49:33.522Z,98.22
2024-03-08T08:50:35.487Z,98.59
2024-03-08T08:51:37.834Z,98.37
2024-03-08T08:52:40.924Z,98.81
2024-03-08T08:53:48.772Z,98.41
2024-03-08T08:54:51.033Z,97.53
2024-03-08T08:55:54.412Z,97.65
2024-03-08T08:56:56.112Z,97.97
2024-03-08T08:57:58.104Z,97.69
2024-03-08T08:58:59.780Z,96.75
2024-03-08T09:00:01.648Z,96.09
2024-03-08T09:01:03.346Z,96.58
2024-03-08T09:02:05.108Z,97.37
2024-03-08T09:03:08.151Z,97.67
2024-03-08T09:04:09.737Z,97.43
2024-03-08T09:05:12.863Z,97.25
2024-03-08T09:06:14.844Z,97.16
2024-03-08T09:07:17.475Z,96.89
2024-03-08T09:08:19.231Z,96.95
2024-03-08T09:09:20.933Z,96.59
2024-03-08T09:10:22.831Z,97.02
2024-03-08T09:11:26.422Z,96.22
2024-03-08T09:12:28.133Z,95.03
2024-03-08T09:13:31.942Z,93.82
2024-03-08T09:14:35.725Z,94.35
2024-03-08T09:15:37.406Z,94.45
2024-03-08T09:16:39.114Z,93.93
2024-03-08T09:17:41.855Z,93.52
2024-03-08T09:18:44.157Z,93.35
2024-03-08T09:19:46.057Z,93.69
2024-03-08T09:20:48.243Z,94.14
2024-03-08T09:21:49.806Z,94.28
2024-03-08T09:22:51.450Z,94.75
2024-03-08T09:23:53.033Z,94.11
2024-03-08T09:24:54.536Z,93.29
2024-03-08T09:25:56.199Z,93.24
2024-03-08T09:26:59.772Z,93.16
2024-03-08T09:28:01.350Z,92.78
2024-03-08T09:29:02.935Z,92.85
2024-03-08T09:30:05.415Z,92.45
2024-03-08T09:31:07.001Z,92.08
2024-03-08T09:32:08.974Z,91.09
2024-03-08T09:33:10.951Z,89.25
2024-03-08T09:34:17.413Z,89.59
2024-03-08T09:35:22.070Z,89.07
2024-03-08T09:36:23.679Z,90.36
2024-03-08T09:37:25.228Z,91.00
2024-03-08T09:38:26.805Z,91.71
2024-03-08T09:39:30.045Z,91.75
2024-03-08T09:40:33.570Z,91.79
2024-03-08T09:41:35.257Z,91.34
2024-03-08T09:42:39.668Z,91.61
2024-03-08T09:43:41.557Z,91.63
2024-03-08T09:44:47.247Z,91.77
2024-03-08T09:45:50.815Z,93.00
2024-03-08T09:46:54.221Z,92.64
2024-03-08T09:47:56.096Z,91.18
2024-03-08T09:48:58.092Z,90.29
2024-03-08T09:49:59.789Z,89.81
2024-03-08T09:51:01.945Z,89.51
2024-03-08T09:52:06.117Z,88.82
2024-03-08T09:53:11.246Z,88.39
2024-03-08T09:54:23.201Z,88.49
2024-03-08T09:55:27.104Z,88.54
2024-03-08T09:56:29.023Z,88.60
2024-03-08T09:57:30.689Z,87.63
2024-03-08T09:58:43.634Z,87.01
2024-03-08T09:59:48.208Z,87.00
2024-03-08T10:00:49.786Z,85.85
2024-03-08T10:01:53.198Z,86.67
2024-03-08T10:02:55.261Z,85.45
2024-03-08T10:03:58.526Z,85.07
2024-03-08T10:05:00.127Z,85.75
2024-03-08T10:06:01.835Z,86.99
2024-03-08T10:07:03.491Z,86.51
2024-03-08T10:08:07.799Z,85.14
2024-03-08T10:09:11.600Z,85.52
2024-03-08T10:10:13.600Z,85.42
2024-03-08T10:11:15.337Z,84.40
2024-03-08T10:12:18.296Z,85.16
2024-03-08T10:13:21.034Z,84.72
2024-03-08T10:14:22.848Z,84.42
2024-03-08T10:15:31.021Z,82.69
2024-03-08T10:16:32.677Z,83.35
2024-03-08T10:17:36.375Z,83.51
2024-03-08T10:18:38.198Z,83.33
2024-03-08T10:19:40.327Z,83.36
2024-03-08T10:20:42.228Z,82.99
2024-03-08T10:21:55.066Z,81.39
2024-03-08T10:23:03.094Z,81.68
2024-03-08T10:24:11.996Z,83.50
2024-03-08T10:25:14.653Z,84.42
2024-03-08T10:26:19.158Z,84.57
2024-03-08T10:27:20.733Z,85.24
2024-03-08T10:28:23.665Z,84.51
2024-03-08T10:29:25.457Z,83.59
2024-03-08T10:30:26.999Z,83.06
2024-03-08T10:31:28.700Z,83.25
2024-03-08T10:32:30.265Z,82.76
2024-03-08T10:33:31.879Z,81.69
2024-03-08T10:34:33.423Z,81.59
2024-03-08T10:35:35.365Z,81.83
2024-03-08T10:36:39.106Z,81.89
2024-03-08T10:37:48.822Z,81.61
2024-03-08T10:38:54.582Z,81.49
2024-03-08T10:40:12.254Z,80.83
2024-03-08T10:41:14.821Z,80.50
2024-03-08T10:42:20.495Z,80.68
2024-03-08T10:43:28.546Z,78.34
2024-03-08T10:44:30.505Z,78.31
2024-03-08T10:45:39.235Z,78.17
2024-03-08T10:46:49.971Z,76.95
2024-03-08T10:48:00.685Z,77.59
2024-03-08T10:49:09.052Z,77.10
2024-03-08T10:50:23.448Z,75.08
2024-03-08T10:51:26.881Z,75.75
2024-03-08T10:52:28.609Z,76.55
2024-03-08T10:53:30.709Z,75.23
2024-03-08T10:54:33.672Z,75.44
2024-03-08T10:55:40.641Z,76.32
2024-03-08T10:56:42.297Z,77.07
2024-03-08T10:57:44.283Z,77.92
2024-03-08T10:58:47.261Z,77.65
2024-03-08T10:59:51.163Z,76.71
2024-03-08T11:00:54.946Z,77.09
2024-03-08T11:01:56.743Z,77.11
2024-03-08T11:02:58.408Z,76.18
2024-03-08T11:03:59.960Z,75.97
2024-03-08T11:05:05.016Z,76.47
2024-03-08T11:06:10.605Z,77.05
2024-03-08T11:07:18.432Z,78.09
2024-03-08T11:08:20.376Z,78.81
2024-03-08T11:09:36.693Z,78.06
2024-03-08T11:10:57.148Z,77.79
2024-03-08T11:12:21.881Z,77.04
2024-03-08T11:13:46.893Z,75.82
2024-03-08T11:14:53.203Z,77.38
2024-03-08T11:15:55.209Z,78.10
2024-03-08T11:16:56.865Z,77.98
2024-03-08T11:18:01.484Z,77.30
2024-03-08T11:19:27.154Z,76.89
2024-03-08T11:20:29.122Z,77.92
2024-03-08T11:21:32.570Z,76.44
2024-03-08T11:22:35.179Z,75.90
2024-03-08T11:23:36.862Z,74.57
2024-03-08T11:24:41.322Z,73.82
2024-03-08T11:25:45.539Z,75.57
2024-03-08T11:26:47.874Z,75.07
2024-03-08T11:28:07.025Z,74.35
2024-03-08T11:29:36.373Z,75.34
2024-03-08T11:30:39.698Z,74.32
2024-03-08T11:31:42.273Z,73.53
2024-03-08T11:32:49.922Z,75.33
2024-03-08T11:33:53.227Z,76.59
2024-03-08T11:34:55.079Z,76.79
2024-03-08T11:36:26.969Z,77.22
2024-03-08T11:37:31.395Z,75.88
2024-03-08T11:38:34.445Z,75.50
2024-03-08T11:39:38.249Z,79.23
2024-03-08T11:40:41.154Z,75.32
2024-03-08T11:41:46.474Z,72.69
2024-03-08T11:42:49.632Z,74.13
2024-03-08T11:44:06.248Z,75.30
2024-03-08T11:45:12.539Z,74.97
2024-03-08T11:46:19.023Z,72.74
2024-03-08T11:47:21.880Z,74.24
2024-03-08T11:48:24.379Z,75.31
2024-03-08T11:49:26.592Z,75.37
2024-03-08T11:50:28.647Z,74.79
2024-03-08T11:51:31.279Z,73.87
2024-03-08T11:52:32.877Z,72.85
2024-03-08T11:53:34.564Z,73.55
2024-03-08T11:54:37.304Z,74.07
2024-03-08T11:55:39.192Z,70.87
2024-03-08T11:56:42.760Z,72.24
2024-03-08T11:57:44.904Z,73.44
2024-03-08T11:58:55.557Z,74.21
2024-03-08T11:59:58.273Z,74.80
2024-03-08T12:01:07.115Z,73.09
2024-03-08T12:02:12.208Z,74.43
2024-03-08T12:03:14.075Z,74.77
2024-03-08T12:04:15.737Z,74.12
2024-03-08T12:05:17.659Z,74.04
2024-03-08T12:06:19.395Z,72.77
2024-03-08T12:07:21.103Z,74.12
2024-03-08T12:08:22.648Z,72.19
2024-03-08T12:09:24.259Z,73.65
2024-03-08T12:10:26.298Z,75.28
2024-03-08T12:11:29.927Z,72.82
2024-03-08T12:12:33.823Z,71.02
2024-03-08T12:13:36.037Z,72.51
2024-03-08T12:14:38.252Z,72.53
2024-03-08T12:15:40.675Z,71.75
2024-03-08T12:16:43.841Z,71.19
2024-03-08T12:17:49.316Z,70.39
2024-03-08T12:18:53.182Z,71.76
2024-03-08T12:19:55.841Z,72.75
2024-03-08T12:21:11.807Z,71.60
2024-03-08T12:22:16.579Z,71.01
2024-03-08T12:23:18.331Z,72.35
2024-03-08T12:24:20.466Z,70.93
2024-03-08T12:25:22.134Z,69.77
2024-03-08T12:26:27.326Z,70.50
2024-03-08T12:27:29.872Z,69.80
2024-03-08T12:28:31.634Z,68.70
2024-03-08T12:29:33.157Z,66.50
2024-03-08T12:30:34.873Z,66.97
2024-03-08T12:31:37.299Z,67.46
2024-03-08T12:32:39.926Z,67.79
2024-03-08T12:33:57.700Z,67.00
2024-03-08T12:34:59.663Z,68.45
2024-03-08T12:36:01.240Z,69.23
2024-03-08T12:37:02.888Z,68.80
2024-03-08T12:38:09.430Z,69.80
2024-03-08T12:39:13.550Z,68.58
2024-03-08T12:40:17.894Z,68.64
2024-03-08T12:41:20.531Z,68.88
2024-03-08T12:42:24.161Z,68.99
2024-03-08T12:43:25.776Z,68.86
2024-03-08T12:44:29.415Z,66.40
2024-03-08T12:45:31.052Z,67.40
2024-03-08T12:46:33.752Z,65.44
2024-03-08T12:47:35.388Z,65.50
2024-03-08T12:48:37.968Z,66.87
2024-03-08T12:49:40.315Z,69.13
2024-03-08T12:50:45.017Z,70.70
2024-03-08T12:51:46.564Z,69.40
2024-03-08T12:52:50.979Z,66.87
2024-03-08T12:53:56.954Z,67.74
2024-03-08T12:54:58.757Z,64.75
2024-03-08T12:56:00.412Z,65.53
2024-03-08T12:57:02.040Z,68.44
2024-03-08T12:58:04.524Z,66.88
2024-03-08T12:59:07.022Z,66.29
2024-03-08T13:00:14.189Z,61.62
2024-03-08T13:01:16.408Z,63.43
2024-03-08T13:02:18.167Z,65.18
2024-03-08T13:03:19.744Z,60.59
2024-03-08T13:04:22.682Z,65.14
2024-03-08T13:05:24.501Z,66.54
2024-03-08T13:06:26.165Z,64.74
2024-03-08T13:07:27.906Z,62.34
2024-03-08T13:08:30.861Z,63.52
2024-03-08T13:09:32.900Z,64.34
2024-03-08T13:10:34.491Z,63.32
2024-03-08T13:11:38.003Z,63.07
2024-03-08T13:12:39.945Z,63.81
2024-03-08T13:13:42.121Z,63.61
2024-03-08T13:14:43.728Z,61.51
2024-03-08T13:15:45.310Z,62.29
2024-03-08T13:16:50.100Z,62.82
2024-03-08T13:17:52.020Z,63.32
2024-03-08T13:18:54.745Z,62.54